Terminal Aerodrome Forecast
Issued by NWS Nashville, TN

Home | Current Version | Previous Version | Text Only | Print | Product List | Glossary On
Versions: 1 2 3 4 5 6 7 8 9 10 11 12 13 14 15 16 17 18 19 20 21 22 23 24 25 26 27 28 29 30 31 32 33 34 35 36 37 38 39
000
FTUS44 KOHX 240726 AAB
TAFCSV
TAF AMD
KCSV 240726Z 2407/2506 04006KT 3SM BR OVC003
      TEMPO 2408/2412 1/4SM FG VV001
     FM241500 02007KT 6SM BR OVC007
     FM242000 36007KT P6SM OVC015=

USA.gov is the U.S. government's official web portal to all federal, state and local government web resources and services.